Time,TemperatureF,DewpointF,PressureIn,WindDirection,WindDirectionDegrees,WindSpeedMPH,WindSpeedGustMPH,Humidity,HourlyPrecipIn,Conditions,Clouds,dailyrainin,SoftwareType,DateUTC
2013-07-06 00:02:00,57.4,48.1,29.93,WNW,292,0.0,0.0,71,0.00,,,0.00,WUHU21623XXSP,2013-07-06 07:02:00,
2013-07-06 00:07:00,57.6,48.3,29.93,WNW,292,0.0,2.7,71,0.00,,,0.00,WUHU21623XXSP,2013-07-06 07:07:00,
2013-07-06 00:12:00,58.3,49.0,29.93,WNW,292,0.0,2.7,71,0.00,,,0.00,WUHU21623XXSP,2013-07-06 07:12:00,
2013-07-06 00:17:00,58.6,48.9,29.94,WNW,292,0.0,0.0,70,0.00,,,0.00,WUHU21623XXSP,2013-07-06 07:17:00,
2013-07-06 00:22:00,58.8,49.1,29.94,WNW,292,0.0,0.0,70,0.00,,,0.00,WUHU21623XXSP,2013-07-06 07:22:00,
2013-07-06 00:27:00,58.8,49.1,29.93,WNW,292,0.0,0.0,70,0.00,,,0.00,WUHU21623XXSP,2013-07-06 07:27:00,
2013-07-06 00:32:00,58.5,48.8,29.94,WNW,292,0.0,0.0,70,0.00,,,0.00,WUHU21623XXSP,2013-07-06 07:32:00,
2013-07-06 00:37:00,58.3,49.0,29.94,WNW,292,0.0,0.0,71,0.00,,,0.00,WUHU21623XXSP,2013-07-06 07:37:00,
2013-07-06 00:42:00,58.5,48.8,29.94,WNW,292,0.0,0.0,70,0.00,,,0.00,WUHU21623XXSP,2013-07-06 07:42:00,
2013-07-06 00:47:00,58.6,48.9,29.94,WNW,292,0.0,0.0,70,0.00,,,0.00,WUHU21623XXSP,2013-07-06 07:47:00,
2013-07-06 00:52:00,58.8,49.1,29.94,WNW,292,0.0,0.0,70,0.00,,,0.00,WUHU21623XXSP,2013-07-06 07:52:00,
2013-07-06 00:57:00,58.6,48.9,29.94,WNW,292,0.0,0.0,70,0.00,,,0.00,WUHU21623XXSP,2013-07-06 07:57:00,
2013-07-06 01:02:00,58.5,48.8,29.94,WNW,292,0.0,0.0,70,0.00,,,0.00,WUHU21623XXSP,2013-07-06 08:02:00,
2013-07-06 01:07:00,57.4,48.9,29.93,WNW,292,0.0,0.0,73,0.00,,,0.00,WUHU21623XXSP,2013-07-06 08:07:00,
2013-07-06 01:12:00,57.0,48.5,29.94,WNW,292,0.0,0.0,73,0.00,,,0.00,WUHU21623XXSP,2013-07-06 08:12:00,
2013-07-06 01:17:00,57.0,48.5,29.94,WNW,292,0.0,0.0,73,0.00,,,0.00,WUHU21623XXSP,2013-07-06 08:17:00,
2013-07-06 01:22:00,56.5,48.7,29.94,WNW,292,0.0,0.0,75,0.00,,,0.00,WUHU21623XXSP,2013-07-06 08:22:00,
2013-07-06 01:27:00,56.1,48.7,29.94,WNW,292,0.0,0.0,76,0.00,,,0.00,WUHU21623XXSP,2013-07-06 08:27:00,
2013-07-06 01:32:00,55.8,48.4,29.94,WNW,292,0.0,0.0,76,0.00,,,0.00,WUHU21623XXSP,2013-07-06 08:32:00,
2013-07-06 01:37:00,55.4,48.3,29.94,WNW,292,0.0,0.0,77,0.00,,,0.00,WUHU21623XXSP,2013-07-06 08:37:00,
2013-07-06 01:42:00,55.4,48.7,29.94,WNW,292,0.0,0.0,78,0.00,,,0.00,WUHU21623XXSP,2013-07-06 08:42:00,
2013-07-06 01:47:00,55.4,49.0,29.94,WNW,292,0.0,0.0,79,0.00,,,0.00,WUHU21623XXSP,2013-07-06 08:47:00,
2013-07-06 01:52:00,55.4,49.3,29.94,WNW,292,0.0,0.0,80,0.00,,,0.00,WUHU21623XXSP,2013-07-06 08:52:00,
2013-07-06 01:57:00,55.4,49.3,29.94,WNW,292,0.0,0.0,80,0.00,,,0.00,WUHU21623XXSP,2013-07-06 08:57:00,
2013-07-06 02:02:00,55.2,48.8,29.94,WNW,292,0.0,0.0,79,0.00,,,0.00,WUHU21623XXSP,2013-07-06 09:02:00,
2013-07-06 02:07:00,55.6,49.5,29.94,WNW,292,0.0,0.0,80,0.00,,,0.00,WUHU21623XXSP,2013-07-06 09:07:00,
2013-07-06 02:12:00,55.8,50.0,29.94,WNW,292,0.0,0.0,81,0.00,,,0.00,WUHU21623XXSP,2013-07-06 09:12:00,
2013-07-06 02:17:00,55.9,50.1,29.94,WNW,292,0.0,0.0,81,0.00,,,0.00,WUHU21623XXSP,2013-07-06 09:17:00,
2013-07-06 02:22:00,55.9,50.4,29.94,WNW,292,0.0,0.0,82,0.00,,,0.00,WUHU21623XXSP,2013-07-06 09:22:00,
2013-07-06 02:27:00,55.9,50.4,29.95,WNW,292,0.0,0.0,82,0.00,,,0.00,WUHU21623XXSP,2013-07-06 09:27:00,
2013-07-06 02:32:00,55.9,50.4,29.95,WNW,292,0.0,0.0,82,0.00,,,0.00,WUHU21623XXSP,2013-07-06 09:32:00,
2013-07-06 02:37:00,55.6,50.2,29.95,WNW,292,0.0,0.0,82,0.00,,,0.00,WUHU21623XXSP,2013-07-06 09:37:00,
2013-07-06 02:42:00,55.2,49.8,29.95,WNW,292,0.0,0.0,82,0.00,,,0.00,WUHU21623XXSP,2013-07-06 09:42:00,
2013-07-06 02:47:00,55.2,49.8,29.95,WNW,292,0.0,0.0,82,0.00,,,0.00,WUHU21623XXSP,2013-07-06 09:47:00,
2013-07-06 02:52:00,54.9,49.8,29.95,WNW,292,0.0,0.0,83,0.00,,,0.00,WUHU21623XXSP,2013-07-06 09:52:00,
2013-07-06 02:57:00,54.7,49.6,29.95,WNW,292,0.0,0.0,83,0.00,,,0.00,WUHU21623XXSP,2013-07-06 09:57:00,
2013-07-06 03:02:00,54.5,49.4,29.95,WNW,292,0.0,0.0,83,0.00,,,0.00,WUHU21623XXSP,2013-07-06 10:02:00,
2013-07-06 03:07:00,54.1,48.7,29.95,WNW,292,0.0,0.0,82,0.00,,,0.00,WUHU21623XXSP,2013-07-06 10:07:00,
2013-07-06 03:12:00,53.8,48.4,29.95,WNW,292,0.0,0.0,82,0.00,,,0.00,WUHU21623XXSP,2013-07-06 10:12:00,
2013-07-06 03:17:00,53.6,48.2,29.95,WNW,292,0.0,0.0,82,0.00,,,0.00,WUHU21623XXSP,2013-07-06 10:17:00,
2013-07-06 03:22:00,53.2,47.8,29.96,WNW,292,0.0,0.0,82,0.00,,,0.00,WUHU21623XXSP,2013-07-06 10:22:00,
2013-07-06 03:27:00,53.1,47.7,29.96,WNW,292,0.0,0.0,82,0.00,,,0.00,WUHU21623XXSP,2013-07-06 10:27:00,
2013-07-06 03:32:00,52.9,47.5,29.96,WNW,292,0.0,0.0,82,0.00,,,0.00,WUHU21623XXSP,2013-07-06 10:32:00,
2013-07-06 03:37:00,52.5,47.7,29.96,WNW,292,0.0,0.0,84,0.00,,,0.00,WUHU21623XXSP,2013-07-06 10:37:00,
2013-07-06 03:42:00,52.5,48.1,29.96,WNW,292,0.0,0.0,85,0.00,,,0.00,WUHU21623XXSP,2013-07-06 10:42:00,
2013-07-06 03:47:00,52.5,48.1,29.96,WNW,292,0.0,0.0,85,0.00,,,0.00,WUHU21623XXSP,2013-07-06 10:47:00,
2013-07-06 03:52:00,52.7,48.3,29.96,WNW,292,0.0,0.0,85,0.00,,,0.00,WUHU21623XXSP,2013-07-06 10:52:00,
2013-07-06 03:57:00,52.7,47.9,29.96,WNW,292,0.0,0.0,84,0.00,,,0.00,WUHU21623XXSP,2013-07-06 10:57:00,
2013-07-06 04:02:00,52.9,48.4,29.96,WNW,292,0.0,0.0,85,0.00,,,0.00,WUHU21623XXSP,2013-07-06 11:02:00,
2013-07-06 04:07:00,53.2,48.7,29.96,WNW,292,0.0,0.0,85,0.00,,,0.00,WUHU21623XXSP,2013-07-06 11:07:00,
2013-07-06 04:12:00,53.4,49.2,29.96,WNW,292,0.0,0.0,86,0.00,,,0.00,WUHU21623XXSP,2013-07-06 11:12:00,
2013-07-06 04:17:00,53.4,48.9,29.96,WNW,292,0.0,0.0,85,0.00,,,0.00,WUHU21623XXSP,2013-07-06 11:17:00,
2013-07-06 04:22:00,53.4,48.9,29.96,WNW,292,0.0,0.0,85,0.00,,,0.00,WUHU21623XXSP,2013-07-06 11:22:00,
2013-07-06 04:27:00,53.8,49.3,29.96,WNW,292,0.0,0.0,85,0.00,,,0.00,WUHU21623XXSP,2013-07-06 11:27:00,
2013-07-06 04:32:00,53.8,49.3,29.96,WNW,292,0.0,0.0,85,0.00,,,0.00,WUHU21623XXSP,2013-07-06 11:32:00,
2013-07-06 04:37:00,53.8,49.3,29.96,WNW,292,0.0,0.0,85,0.00,,,0.00,WUHU21623XXSP,2013-07-06 11:37:00,
2013-07-06 04:42:00,53.8,49.3,29.96,WNW,292,0.0,0.0,85,0.00,,,0.00,WUHU21623XXSP,2013-07-06 11:42:00,
2013-07-06 04:47:00,53.8,49.3,29.97,WNW,292,0.0,0.0,85,0.00,,,0.00,WUHU21623XXSP,2013-07-06 11:47:00,
2013-07-06 04:52:00,54.0,49.5,29.96,WNW,292,0.0,0.0,85,0.00,,,0.00,WUHU21623XXSP,2013-07-06 11:52:00,
2013-07-06 04:57:00,53.8,49.6,29.97,WNW,292,0.0,0.0,86,0.00,,,0.00,WUHU21623XXSP,2013-07-06 11:57:00,
2013-07-06 05:03:00,53.4,48.9,29.96,WNW,292,0.0,0.0,85,0.00,,,0.00,WUHU21623XXSP,2013-07-06 12:03:00,
2013-07-06 05:08:00,53.4,48.9,29.97,WNW,292,0.0,0.0,85,0.00,,,0.00,WUHU21623XXSP,2013-07-06 12:08:00,
2013-07-06 05:13:00,53.2,48.7,29.97,WNW,292,0.0,0.0,85,0.00,,,0.00,WUHU21623XXSP,2013-07-06 12:13:00,
2013-07-06 05:18:00,52.9,48.4,29.97,WNW,292,0.0,0.0,85,0.00,,,0.00,WUHU21623XXSP,2013-07-06 12:18:00,
2013-07-06 05:23:00,53.2,48.7,29.97,WNW,292,0.0,0.0,85,0.00,,,0.00,WUHU21623XXSP,2013-07-06 12:23:00,
2013-07-06 05:28:00,53.4,48.9,29.97,WNW,292,0.0,0.0,85,0.00,,,0.00,WUHU21623XXSP,2013-07-06 12:28:00,
2013-07-06 05:33:00,53.8,49.3,29.97,WNW,292,0.0,0.0,85,0.00,,,0.00,WUHU21623XXSP,2013-07-06 12:33:00,
2013-07-06 05:38:00,55.2,50.7,29.97,WNW,292,0.0,0.0,85,0.00,,,0.00,WUHU21623XXSP,2013-07-06 12:38:00,
2013-07-06 05:43:00,56.5,51.7,29.97,WNW,292,0.0,0.0,84,0.00,,,0.00,WUHU21623XXSP,2013-07-06 12:43:00,
2013-07-06 05:48:00,56.8,51.0,29.97,WNW,292,0.0,0.0,81,0.00,,,0.00,WUHU21623XXSP,2013-07-06 12:48:00,
2013-07-06 05:53:00,55.9,50.1,29.97,WNW,292,0.0,0.0,81,0.00,,,0.00,WUHU21623XXSP,2013-07-06 12:53:00,
2013-07-06 05:58:00,55.2,49.4,29.97,WNW,292,0.0,0.0,81,0.00,,,0.00,WUHU21623XXSP,2013-07-06 12:58:00,
2013-07-06 06:03:00,55.4,50.0,29.97,WNW,292,0.0,0.0,82,0.00,,,0.00,WUHU21623XXSP,2013-07-06 13:03:00,
2013-07-06 06:08:00,55.9,50.8,29.97,WNW,292,0.0,0.0,83,0.00,,,0.00,WUHU21623XXSP,2013-07-06 13:08:00,
2013-07-06 06:13:00,57.0,52.5,29.97,WNW,292,0.0,0.0,85,0.00,,,0.00,WUHU21623XXSP,2013-07-06 13:13:00,
2013-07-06 06:18:00,59.9,55.3,29.97,WNW,292,0.0,0.0,85,0.00,,,0.00,WUHU21623XXSP,2013-07-06 13:18:00,
2013-07-06 06:23:00,64.6,57.6,29.97,WNW,292,0.0,0.0,78,0.00,,,0.00,WUHU21623XXSP,2013-07-06 13:23:00,
2013-07-06 06:28:00,66.9,58.4,29.97,WNW,292,0.0,0.0,74,0.00,,,0.00,WUHU21623XXSP,2013-07-06 13:28:00,
2013-07-06 06:33:00,69.3,59.6,29.97,WNW,292,0.0,0.0,71,0.00,,,0.00,WUHU21623XXSP,2013-07-06 13:33:00,
2013-07-06 06:38:00,70.9,59.1,29.97,WNW,292,0.0,0.0,66,0.00,,,0.00,WUHU21623XXSP,2013-07-06 13:38:00,
2013-07-06 06:43:00,70.5,57.8,29.97,WNW,292,0.0,0.0,64,0.00,,,0.00,WUHU21623XXSP,2013-07-06 13:43:00,
2013-07-06 06:48:00,72.5,58.4,29.98,WNW,292,0.0,0.0,61,0.00,,,0.00,WUHU21623XXSP,2013-07-06 13:48:00,
2013-07-06 06:53:00,74.3,59.1,29.98,WNW,292,0.0,0.0,59,0.00,,,0.00,WUHU21623XXSP,2013-07-06 13:53:00,
2013-07-06 06:58:00,74.5,58.3,29.98,WNW,292,0.0,0.0,57,0.00,,,0.00,WUHU21623XXSP,2013-07-06 13:58:00,
2013-07-06 07:03:00,74.8,58.1,29.98,WNW,292,0.0,0.0,56,0.00,,,0.00,WUHU21623XXSP,2013-07-06 14:03:00,
2013-07-06 07:08:00,74.5,57.8,29.98,WNW,292,0.0,0.0,56,0.00,,,0.00,WUHU21623XXSP,2013-07-06 14:08:00,
2013-07-06 07:13:00,73.4,56.8,29.98,WNW,292,0.0,0.0,56,0.00,,,0.00,WUHU21623XXSP,2013-07-06 14:13:00,
2013-07-06 07:18:00,71.4,55.4,29.98,West,270,0.0,0.0,57,0.00,,,0.00,WUHU21623XXSP,2013-07-06 14:18:00,
2013-07-06 07:23:00,71.2,55.2,29.98,West,270,0.0,0.0,57,0.00,,,0.00,WUHU21623XXSP,2013-07-06 14:23:00,
2013-07-06 07:28:00,72.0,56.0,29.98,West,270,0.0,0.0,57,0.00,,,0.00,WUHU21623XXSP,2013-07-06 14:28:00,
2013-07-06 07:33:00,73.2,56.6,29.98,West,270,0.0,0.0,56,0.00,,,0.00,WUHU21623XXSP,2013-07-06 14:33:00,
2013-07-06 07:38:00,73.2,56.6,29.98,WSW,247,0.0,0.0,56,0.00,,,0.00,WUHU21623XXSP,2013-07-06 14:38:00,
2013-07-06 07:43:00,72.3,55.8,29.99,WSW,247,0.0,0.0,56,0.00,,,0.00,WUHU21623XXSP,2013-07-06 14:43:00,
2013-07-06 07:48:00,72.3,56.3,29.99,WSW,247,0.0,0.0,57,0.00,,,0.00,WUHU21623XXSP,2013-07-06 14:48:00,
2013-07-06 07:53:00,73.9,57.8,29.98,WSW,247,0.0,0.0,57,0.00,,,0.00,WUHU21623XXSP,2013-07-06 14:53:00,
2013-07-06 07:58:00,76.3,59.0,29.98,WSW,247,0.0,0.0,55,0.00,,,0.00,WUHU21623XXSP,2013-07-06 14:58:00,
2013-07-06 08:03:00,78.8,59.7,29.99,WSW,247,0.0,0.0,52,0.00,,,0.00,WUHU21623XXSP,2013-07-06 15:03:00,
2013-07-06 08:08:00,81.3,61.5,29.99,WSW,247,0.0,0.0,51,0.00,,,0.00,WUHU21623XXSP,2013-07-06 15:08:00,
2013-07-06 08:13:00,82.9,61.2,29.98,WSW,247,0.0,0.0,48,0.00,,,0.00,WUHU21623XXSP,2013-07-06 15:13:00,
2013-07-06 08:18:00,82.9,60.6,29.99,WSW,247,0.0,0.0,47,0.00,,,0.00,WUHU21623XXSP,2013-07-06 15:18:00,
2013-07-06 08:23:00,82.2,59.9,29.99,WSW,247,0.0,0.0,47,0.00,,,0.00,WUHU21623XXSP,2013-07-06 15:23:00,
2013-07-06 08:28:00,82.2,59.9,29.99,ESE,112,0.0,0.0,47,0.00,,,0.00,WUHU21623XXSP,2013-07-06 15:28:00,
2013-07-06 08:33:00,80.4,59.5,29.99,ESE,112,0.0,0.0,49,0.00,,,0.00,WUHU21623XXSP,2013-07-06 15:33:00,
2013-07-06 08:38:00,79.5,58.6,29.99,ESE,112,0.0,0.0,49,0.00,,,0.00,WUHU21623XXSP,2013-07-06 15:38:00,
2013-07-06 08:43:00,79.7,58.8,29.99,ESE,112,0.0,0.0,49,0.00,,,0.00,WUHU21623XXSP,2013-07-06 15:43:00,
2013-07-06 08:48:00,79.9,59.0,29.99,ESE,112,0.0,0.0,49,0.00,,,0.00,WUHU21623XXSP,2013-07-06 15:48:00,
2013-07-06 08:53:00,79.0,58.2,29.99,ESE,112,0.0,0.0,49,0.00,,,0.00,WUHU21623XXSP,2013-07-06 15:53:00,
2013-07-06 08:58:00,79.7,59.4,29.99,ESE,112,0.0,0.0,50,0.00,,,0.00,WUHU21623XXSP,2013-07-06 15:58:00,
2013-07-06 09:03:00,80.6,59.7,29.99,ESE,112,0.0,0.0,49,0.00,,,0.00,WUHU21623XXSP,2013-07-06 16:03:00,
2013-07-06 09:08:00,81.1,60.1,29.99,ESE,112,0.0,0.0,49,0.00,,,0.00,WUHU21623XXSP,2013-07-06 16:08:00,
2013-07-06 09:13:00,80.4,59.5,29.99,SE,135,1.6,1.6,49,0.00,,,0.00,WUHU21623XXSP,2013-07-06 16:13:00,
2013-07-06 09:18:00,79.2,58.4,29.99,SE,135,0.0,2.9,49,0.00,,,0.00,WUHU21623XXSP,2013-07-06 16:18:00,
2013-07-06 09:24:00,77.5,57.4,29.99,SSE,157,0.0,2.9,50,0.00,,,0.00,WUHU21623XXSP,2013-07-06 16:24:00,
2013-07-06 09:29:00,77.5,57.9,29.99,SE,135,0.0,0.0,51,0.00,,,0.00,WUHU21623XXSP,2013-07-06 16:29:00,
2013-07-06 09:34:00,78.1,58.5,29.99,SE,135,0.0,0.0,51,0.00,,,0.00,WUHU21623XXSP,2013-07-06 16:34:00,
2013-07-06 09:40:00,79.0,58.8,29.99,ENE,67,1.8,1.8,50,0.00,,,0.00,WUHU21623XXSP,2013-07-06 16:40:00,
2013-07-06 09:45:00,79.0,59.3,29.99,ENE,67,0.0,1.8,51,0.00,,,0.00,WUHU21623XXSP,2013-07-06 16:45:00,
2013-07-06 09:50:00,79.7,59.4,29.99,NE,45,0.0,0.0,50,0.00,,,0.00,WUHU21623XXSP,2013-07-06 16:50:00,
2013-07-06 09:56:00,79.3,59.0,29.99,SE,135,0.0,0.0,50,0.00,,,0.00,WUHU21623XXSP,2013-07-06 16:56:00,
2013-07-06 10:01:00,79.2,58.9,29.99,SE,135,0.0,0.0,50,0.00,,,0.00,WUHU21623XXSP,2013-07-06 17:01:00,
2013-07-06 10:07:00,79.9,59.6,29.99,ESE,112,2.0,2.0,50,0.00,,,0.00,WUHU21623XXSP,2013-07-06 17:07:00,
2013-07-06 10:12:00,79.7,59.4,29.99,ESE,112,0.0,2.0,50,0.00,,,0.00,WUHU21623XXSP,2013-07-06 17:12:00,
2013-07-06 10:17:00,79.5,59.2,29.99,SE,135,0.0,0.0,50,0.00,,,0.00,WUHU21623XXSP,2013-07-06 17:17:00,
2013-07-06 10:22:00,80.8,60.4,29.99,East,90,0.0,0.0,50,0.00,,,0.00,WUHU21623XXSP,2013-07-06 17:22:00,
2013-07-06 10:27:00,81.1,60.7,29.99,SE,135,0.0,0.0,50,0.00,,,0.00,WUHU21623XXSP,2013-07-06 17:27:00,
2013-07-06 10:32:00,80.2,59.3,29.99,SE,135,0.0,0.0,49,0.00,,,0.00,WUHU21623XXSP,2013-07-06 17:32:00,
2013-07-06 10:37:00,80.2,59.9,29.99,South,180,0.0,0.0,50,0.00,,,0.00,WUHU21623XXSP,2013-07-06 17:37:00,
2013-07-06 10:42:00,80.4,59.5,29.99,SSE,157,0.0,0.0,49,0.00,,,0.00,WUHU21623XXSP,2013-07-06 17:42:00,
2013-07-06 10:48:00,80.8,59.8,29.98,SE,135,0.0,0.0,49,0.00,,,0.00,WUHU21623XXSP,2013-07-06 17:48:00,
2013-07-06 10:53:00,80.4,58.9,29.99,SE,135,0.0,0.0,48,0.00,,,0.00,WUHU21623XXSP,2013-07-06 17:53:00,
2013-07-06 10:59:00,80.4,58.9,29.98,ESE,112,0.0,0.0,48,0.00,,,0.00,WUHU21623XXSP,2013-07-06 17:59:00,
2013-07-06 11:04:00,81.1,59.5,29.99,ESE,112,0.0,0.0,48,0.00,,,0.00,WUHU21623XXSP,2013-07-06 18:04:00,
2013-07-06 11:09:00,80.8,58.6,29.98,NE,45,0.0,0.0,47,0.00,,,0.00,WUHU21623XXSP,2013-07-06 18:09:00,
2013-07-06 11:15:00,80.2,58.1,29.98,SSE,157,3.6,3.6,47,0.00,,,0.00,WUHU21623XXSP,2013-07-06 18:15:00,
2013-07-06 11:20:00,79.7,58.2,29.98,SSE,157,3.6,3.6,48,0.00,,,0.00,WUHU21623XXSP,2013-07-06 18:20:00,
2013-07-06 11:25:00,79.5,58.0,29.98,SSE,157,0.0,3.6,48,0.00,,,0.00,WUHU21623XXSP,2013-07-06 18:25:00,
2013-07-06 11:30:00,79.5,58.0,29.98,South,180,0.0,0.0,48,0.00,,,0.00,WUHU21623XXSP,2013-07-06 18:30:00,
2013-07-06 11:35:00,79.3,57.9,29.98,South,180,0.0,0.0,48,0.00,,,0.00,WUHU21623XXSP,2013-07-06 18:35:00,
2013-07-06 11:41:00,79.0,57.6,29.98,SE,135,0.0,0.0,48,0.00,,,0.00,WUHU21623XXSP,2013-07-06 18:41:00,
2013-07-06 11:46:00,79.7,58.2,29.98,SE,135,0.0,0.0,48,0.00,,,0.00,WUHU21623XXSP,2013-07-06 18:46:00,
2013-07-06 11:51:00,79.9,57.8,29.98,SE,135,0.0,0.0,47,0.00,,,0.00,WUHU21623XXSP,2013-07-06 18:51:00,
2013-07-06 11:56:00,80.4,58.9,29.98,SE,135,0.0,0.0,48,0.00,,,0.00,WUHU21623XXSP,2013-07-06 18:56:00,
2013-07-06 12:01:00,81.3,59.1,29.98,NE,45,0.0,0.0,47,0.00,,,0.00,WUHU21623XXSP,2013-07-06 19:01:00,
2013-07-06 12:06:00,81.5,58.6,29.98,NE,45,0.0,0.0,46,0.00,,,0.00,WUHU21623XXSP,2013-07-06 19:06:00,
2013-07-06 12:12:00,82.2,59.9,29.98,NE,45,0.0,0.0,47,0.00,,,0.00,WUHU21623XXSP,2013-07-06 19:12:00,
2013-07-06 12:17:00,82.8,59.8,29.98,NNE,22,0.0,0.0,46,0.00,,,0.00,WUHU21623XXSP,2013-07-06 19:17:00,
2013-07-06 12:23:00,82.6,59.0,29.97,NNW,337,0.0,6.5,45,0.00,,,0.00,WUHU21623XXSP,2013-07-06 19:23:00,
2013-07-06 12:28:00,82.0,58.5,29.98,North,0,0.0,0.0,45,0.00,,,0.00,WUHU21623XXSP,2013-07-06 19:28:00,
2013-07-06 12:33:00,82.2,58.6,29.97,West,270,0.0,0.0,45,0.00,,,0.00,WUHU21623XXSP,2013-07-06 19:33:00,
2013-07-06 12:38:00,82.2,58.6,29.97,WSW,247,0.0,0.0,45,0.00,,,0.00,WUHU21623XXSP,2013-07-06 19:38:00,
2013-07-06 12:43:00,81.7,58.8,29.97,ENE,67,0.0,0.0,46,0.00,,,0.00,WUHU21623XXSP,2013-07-06 19:43:00,
2013-07-06 12:48:00,81.7,58.8,29.97,WSW,247,0.0,0.0,46,0.00,,,0.00,WUHU21623XXSP,2013-07-06 19:48:00,
2013-07-06 12:53:00,81.9,59.0,29.97,WSW,247,0.0,0.0,46,0.00,,,0.00,WUHU21623XXSP,2013-07-06 19:53:00,
2013-07-06 12:59:00,82.2,59.3,29.97,WSW,247,0.0,0.0,46,0.00,,,0.00,WUHU21623XXSP,2013-07-06 19:59:00,
2013-07-06 13:05:00,82.4,59.5,29.97,WSW,247,0.0,8.1,46,0.00,,,0.00,WUHU21623XXSP,2013-07-06 20:05:00,
2013-07-06 13:10:00,82.4,59.5,29.97,WSW,247,0.0,8.1,46,0.00,,,0.00,WUHU21623XXSP,2013-07-06 20:10:00,
2013-07-06 13:15:00,82.2,59.3,29.97,WSW,247,0.0,0.0,46,0.00,,,0.00,WUHU21623XXSP,2013-07-06 20:15:00,
2013-07-06 13:20:00,81.1,57.6,29.97,WSW,247,0.0,0.0,45,0.00,,,0.00,WUHU21623XXSP,2013-07-06 20:20:00,
2013-07-06 13:26:00,81.1,58.3,29.97,WSW,247,0.0,0.0,46,0.00,,,0.00,WUHU21623XXSP,2013-07-06 20:26:00,
2013-07-06 13:31:00,81.1,58.3,29.97,WSW,247,0.0,0.0,46,0.00,,,0.00,WUHU21623XXSP,2013-07-06 20:31:00,
2013-07-06 13:36:00,81.1,58.3,29.97,WSW,247,0.0,0.0,46,0.00,,,0.00,WUHU21623XXSP,2013-07-06 20:36:00,
2013-07-06 13:41:00,81.1,58.3,29.96,WSW,247,0.0,0.0,46,0.00,,,0.00,WUHU21623XXSP,2013-07-06 20:41:00,
2013-07-06 13:46:00,81.1,58.3,29.96,WSW,247,0.0,0.0,46,0.00,,,0.00,WUHU21623XXSP,2013-07-06 20:46:00,
2013-07-06 14:17:00,82.9,59.9,29.96,WSW,247,0.0,0.0,46,0.00,,,0.00,WUHU21623XXSP,2013-07-06 21:17:00,
2013-07-06 14:22:00,82.8,58.5,29.96,WSW,247,0.0,0.0,44,0.00,,,0.00,WUHU21623XXSP,2013-07-06 21:22:00,
2013-07-06 14:27:00,82.0,56.5,29.96,WSW,247,6.5,6.5,42,0.00,,,0.00,WUHU21623XXSP,2013-07-06 21:27:00,
2013-07-06 14:32:00,82.8,57.2,29.96,WSW,247,0.9,6.5,42,0.00,,,0.00,WUHU21623XXSP,2013-07-06 21:32:00,
2013-07-06 14:38:00,82.8,57.2,29.95,WSW,247,0.0,6.5,42,0.00,,,0.00,WUHU21623XXSP,2013-07-06 21:38:00,
2013-07-06 14:43:00,82.8,57.2,29.95,WSW,247,0.0,0.0,42,0.00,,,0.00,WUHU21623XXSP,2013-07-06 21:43:00,
2013-07-06 14:48:00,82.8,57.2,29.95,WSW,247,0.0,0.0,42,0.00,,,0.00,WUHU21623XXSP,2013-07-06 21:48:00,
2013-07-06 14:53:00,83.5,58.5,29.95,ESE,112,0.0,0.0,43,0.00,,,0.00,WUHU21623XXSP,2013-07-06 21:53:00,
2013-07-06 14:59:00,84.0,59.6,29.95,ESE,112,0.0,0.0,44,0.00,,,0.00,WUHU21623XXSP,2013-07-06 21:59:00,
2013-07-06 15:04:00,84.0,60.3,29.96,NW,315,0.0,0.0,45,0.00,,,0.00,WUHU21623XXSP,2013-07-06 22:04:00,
2013-07-06 15:09:00,84.0,60.3,29.95,NW,315,0.0,0.0,45,0.00,,,0.00,WUHU21623XXSP,2013-07-06 22:09:00,
2013-07-06 15:14:00,83.1,59.5,29.95,WNW,292,0.0,0.0,45,0.00,,,0.00,WUHU21623XXSP,2013-07-06 22:14:00,
2013-07-06 15:19:00,83.5,59.8,29.94,NNW,337,0.0,0.0,45,0.00,,,0.00,WUHU21623XXSP,2013-07-06 22:19:00,
2013-07-06 15:25:00,83.5,59.8,29.94,North,0,0.0,0.0,45,0.00,,,0.00,WUHU21623XXSP,2013-07-06 22:25:00,
2013-07-06 15:30:00,82.8,59.8,29.94,North,0,0.0,2.0,46,0.00,,,0.00,WUHU21623XXSP,2013-07-06 22:30:00,
2013-07-06 15:35:00,82.2,59.3,29.94,North,0,6.0,6.5,46,0.00,,,0.00,WUHU21623XXSP,2013-07-06 22:35:00,
2013-07-06 15:41:00,82.0,59.1,29.94,NNE,22,0.0,6.5,46,0.00,,,0.00,WUHU21623XXSP,2013-07-06 22:41:00,
2013-07-06 15:46:00,82.0,59.1,29.94,North,0,0.0,3.8,46,0.00,,,0.00,WUHU21623XXSP,2013-07-06 22:46:00,
2013-07-06 15:51:00,82.0,59.1,29.94,North,0,0.0,0.0,46,0.00,,,0.00,WUHU21623XXSP,2013-07-06 22:51:00,
2013-07-06 15:56:00,82.2,59.3,29.94,WSW,247,0.0,7.6,46,0.00,,,0.00,WUHU21623XXSP,2013-07-06 22:56:00,
2013-07-06 16:01:00,82.2,59.3,29.94,WSW,247,5.8,7.6,46,0.00,,,0.00,WUHU21623XXSP,2013-07-06 23:01:00,
2013-07-06 16:06:00,82.6,59.7,29.94,WSW,247,0.0,5.8,46,0.00,,,0.00,WUHU21623XXSP,2013-07-06 23:06:00,
2013-07-06 16:11:00,83.1,60.1,29.94,WSW,247,0.0,5.8,46,0.00,,,0.00,WUHU21623XXSP,2013-07-06 23:11:00,
2013-07-06 16:16:00,83.1,60.1,29.94,NNE,22,4.0,4.0,46,0.00,,,0.00,WUHU21623XXSP,2013-07-06 23:16:00,
2013-07-06 16:22:00,80.6,57.8,29.94,WSW,247,0.0,5.6,46,0.00,,,0.00,WUHU21623XXSP,2013-07-06 23:22:00,
2013-07-06 16:27:00,80.8,58.0,29.94,WSW,247,7.2,7.2,46,0.00,,,0.00,WUHU21623XXSP,2013-07-06 23:27:00,
2013-07-06 16:32:00,81.1,58.3,29.94,WSW,247,6.9,7.2,46,0.00,,,0.00,WUHU21623XXSP,2013-07-06 23:32:00,
2013-07-06 16:37:00,81.3,59.1,29.93,WSW,247,0.0,6.9,47,0.00,,,0.00,WUHU21623XXSP,2013-07-06 23:37:00,
2013-07-06 16:42:00,81.3,57.8,29.93,WSW,247,7.8,7.8,45,0.00,,,0.00,WUHU21623XXSP,2013-07-06 23:42:00,
2013-07-06 16:47:00,81.3,58.5,29.93,WSW,247,0.0,7.8,46,0.00,,,0.00,WUHU21623XXSP,2013-07-06 23:47:00,
2013-07-06 16:52:00,82.0,59.1,29.93,WSW,247,0.0,2.5,46,0.00,,,0.00,WUHU21623XXSP,2013-07-06 23:52:00,
2013-07-06 16:57:00,83.1,59.5,29.93,WSW,247,0.0,0.0,45,0.00,,,0.00,WUHU21623XXSP,2013-07-06 23:57:00,
2013-07-06 17:02:00,84.0,59.6,29.92,WSW,247,0.0,0.0,44,0.00,,,0.00,WUHU21623XXSP,2013-07-07 00:02:00,
2013-07-06 17:08:00,84.0,58.3,29.92,WSW,247,0.0,6.0,42,0.00,,,0.00,WUHU21623XXSP,2013-07-07 00:08:00,
2013-07-06 17:13:00,83.7,59.4,29.92,WSW,247,0.0,0.0,44,0.00,,,0.00,WUHU21623XXSP,2013-07-07 00:13:00,
2013-07-06 17:18:00,83.8,59.5,29.92,WSW,247,2.2,2.2,44,0.00,,,0.00,WUHU21623XXSP,2013-07-07 00:18:00,
2013-07-06 17:24:00,84.2,59.8,29.92,WSW,247,2.2,2.2,44,0.00,,,0.00,WUHU21623XXSP,2013-07-07 00:24:00,
2013-07-06 17:29:00,85.8,61.3,29.92,WSW,247,0.0,2.2,44,0.00,,,0.00,WUHU21623XXSP,2013-07-07 00:29:00,
2013-07-06 17:34:00,87.1,61.1,29.92,WNW,292,0.0,2.2,42,0.00,,,0.00,WUHU21623XXSP,2013-07-07 00:34:00,
2013-07-06 17:39:00,87.1,60.4,29.91,WSW,247,0.0,0.0,41,0.00,,,0.00,WUHU21623XXSP,2013-07-07 00:39:00,
2013-07-06 17:44:00,87.4,61.4,29.92,WSW,247,0.0,0.0,42,0.00,,,0.00,WUHU21623XXSP,2013-07-07 00:44:00,
2013-07-06 17:50:00,85.6,60.4,29.91,WSW,247,0.0,0.0,43,0.00,,,0.00,WUHU21623XXSP,2013-07-07 00:50:00,
2013-07-06 17:55:00,85.8,59.2,29.91,WSW,247,0.0,0.0,41,0.00,,,0.00,WUHU21623XXSP,2013-07-07 00:55:00,
2013-07-06 18:00:00,86.2,59.6,29.91,North,0,0.0,0.0,41,0.00,,,0.00,WUHU21623XXSP,2013-07-07 01:00:00,
2013-07-06 18:06:00,83.1,58.2,29.91,WSW,247,0.0,0.7,43,0.00,,,0.00,WUHU21623XXSP,2013-07-07 01:06:00,
2013-07-06 18:11:00,83.1,58.8,29.91,WSW,247,0.0,0.7,44,0.00,,,0.00,WUHU21623XXSP,2013-07-07 01:11:00,
2013-07-06 18:16:00,84.2,59.8,29.91,WSW,247,0.0,0.0,44,0.00,,,0.00,WUHU21623XXSP,2013-07-07 01:16:00,
2013-07-06 18:21:00,84.6,59.5,29.91,WSW,247,0.0,4.0,43,0.00,,,0.00,WUHU21623XXSP,2013-07-07 01:21:00,
2013-07-06 18:27:00,84.6,59.5,29.91,WSW,247,2.2,4.0,43,0.00,,,0.00,WUHU21623XXSP,2013-07-07 01:27:00,
2013-07-06 18:32:00,83.8,57.4,29.91,WSW,247,0.0,6.7,41,0.00,,,0.00,WUHU21623XXSP,2013-07-07 01:32:00,
2013-07-06 18:38:00,83.5,58.5,29.91,WSW,247,0.0,6.7,43,0.00,,,0.00,WUHU21623XXSP,2013-07-07 01:38:00,
2013-07-06 18:43:00,83.5,57.8,29.91,WSW,247,0.0,4.7,42,0.00,,,0.00,WUHU21623XXSP,2013-07-07 01:43:00,
2013-07-06 18:49:00,83.5,58.5,29.91,WSW,247,0.0,4.7,43,0.00,,,0.00,WUHU21623XXSP,2013-07-07 01:49:00,
2013-07-06 18:54:00,83.1,58.2,29.91,WSW,247,0.0,4.5,43,0.00,,,0.00,WUHU21623XXSP,2013-07-07 01:54:00,
2013-07-06 18:59:00,83.5,59.2,29.91,WSW,247,0.0,0.0,44,0.00,,,0.00,WUHU21623XXSP,2013-07-07 01:59:00,
2013-07-06 19:04:00,84.0,58.3,29.91,WSW,247,0.0,0.0,42,0.00,,,0.00,WUHU21623XXSP,2013-07-07 02:04:00,
2013-07-06 19:09:00,84.7,59.6,29.91,WSW,247,0.0,0.0,43,0.00,,,0.00,WUHU21623XXSP,2013-07-07 02:09:00,
2013-07-06 19:15:00,84.6,59.5,29.91,WSW,247,0.0,5.8,43,0.00,,,0.00,WUHU21623XXSP,2013-07-07 02:15:00,
2013-07-06 19:20:00,83.8,58.1,29.91,WSW,247,0.0,5.8,42,0.00,,,0.00,WUHU21623XXSP,2013-07-07 02:20:00,
2013-07-06 19:26:00,82.9,58.6,29.91,WSW,247,0.0,0.0,44,0.00,,,0.00,WUHU21623XXSP,2013-07-07 02:26:00,
2013-07-06 19:31:00,82.9,58.6,29.91,WSW,247,0.0,0.0,44,0.00,,,0.00,WUHU21623XXSP,2013-07-07 02:31:00,
2013-07-06 19:36:00,82.9,58.6,29.91,WSW,247,0.0,0.0,44,0.00,,,0.00,WUHU21623XXSP,2013-07-07 02:36:00,
2013-07-06 19:41:00,81.5,58.0,29.91,WSW,247,0.0,0.0,45,0.00,,,0.00,WUHU21623XXSP,2013-07-07 02:41:00,
2013-07-06 19:46:00,81.1,57.6,29.92,WSW,247,0.0,0.0,45,0.00,,,0.00,WUHU21623XXSP,2013-07-07 02:46:00,
2013-07-06 19:51:00,80.4,57.0,29.91,WSW,247,0.0,0.0,45,0.00,,,0.00,WUHU21623XXSP,2013-07-07 02:51:00,
2013-07-06 19:56:00,80.1,57.4,29.91,WSW,247,0.0,0.0,46,0.00,,,0.00,WUHU21623XXSP,2013-07-07 02:56:00,
2013-07-06 20:02:00,79.5,56.8,29.91,ENE,67,0.0,0.0,46,0.00,,,0.00,WUHU21623XXSP,2013-07-07 03:02:00,
2013-07-06 20:07:00,78.6,56.6,29.91,ENE,67,0.0,0.0,47,0.00,,,0.00,WUHU21623XXSP,2013-07-07 03:07:00,
2013-07-06 20:12:00,78.4,57.0,29.91,ENE,67,0.0,0.0,48,0.00,,,0.00,WUHU21623XXSP,2013-07-07 03:12:00,
2013-07-06 20:18:00,77.2,55.9,29.91,ENE,67,0.0,0.0,48,0.00,,,0.00,WUHU21623XXSP,2013-07-07 03:18:00,
2013-07-06 20:23:00,76.3,55.7,29.91,ENE,67,0.0,0.0,49,0.00,,,0.00,WUHU21623XXSP,2013-07-07 03:23:00,
2013-07-06 20:29:00,75.4,54.9,29.91,ENE,67,0.0,0.0,49,0.00,,,0.00,WUHU21623XXSP,2013-07-07 03:29:00,
2013-07-06 20:34:00,74.1,54.2,29.91,ENE,67,0.0,0.0,50,0.00,,,0.00,WUHU21623XXSP,2013-07-07 03:34:00,
2013-07-06 20:39:00,73.6,53.8,29.91,ENE,67,0.0,0.0,50,0.00,,,0.00,WUHU21623XXSP,2013-07-07 03:39:00,
2013-07-06 20:44:00,72.7,53.5,29.91,ENE,67,0.0,0.0,51,0.00,,,0.00,WUHU21623XXSP,2013-07-07 03:44:00,
2013-07-06 20:49:00,72.1,53.5,29.91,ENE,67,0.0,0.0,52,0.00,,,0.00,WUHU21623XXSP,2013-07-07 03:49:00,
2013-07-06 20:54:00,71.2,53.2,29.92,ENE,67,0.0,0.0,53,0.00,,,0.00,WUHU21623XXSP,2013-07-07 03:54:00,
2013-07-06 20:59:00,70.2,52.8,29.92,ENE,67,0.0,0.0,54,0.00,,,0.00,WUHU21623XXSP,2013-07-07 03:59:00,
2013-07-06 21:01:00,70.2,52.8,29.92,ENE,67,0.0,0.0,54,0.00,,,0.00,WUHU21623XXSP,2013-07-07 04:01:00,
2013-07-06 21:02:00,69.6,52.2,29.92,ENE,67,0.0,0.0,54,0.00,,,0.00,WUHU21623XXSP,2013-07-07 04:02:00,
2013-07-06 21:07:00,68.7,51.9,29.92,ENE,67,0.0,0.0,55,0.00,,,0.00,WUHU21623XXSP,2013-07-07 04:07:00,
2013-07-06 21:12:00,68.2,51.9,29.92,ENE,67,0.0,0.0,56,0.00,,,0.00,WUHU21623XXSP,2013-07-07 04:12:00,
2013-07-06 21:17:00,67.1,50.9,29.92,ENE,67,0.0,0.0,56,0.00,,,0.00,WUHU21623XXSP,2013-07-07 04:17:00,
2013-07-06 21:22:00,66.4,51.7,29.92,ENE,67,0.0,0.0,59,0.00,,,0.00,WUHU21623XXSP,2013-07-07 04:22:00,
2013-07-06 21:27:00,65.8,52.9,29.93,ENE,67,0.0,0.0,63,0.00,,,0.00,WUHU21623XXSP,2013-07-07 04:27:00,
2013-07-06 21:32:00,65.1,51.4,29.93,ENE,67,0.0,0.0,61,0.00,,,0.00,WUHU21623XXSP,2013-07-07 04:32:00,
2013-07-06 21:37:00,64.6,50.9,29.92,ENE,67,0.0,0.0,61,0.00,,,0.00,WUHU21623XXSP,2013-07-07 04:37:00,
2013-07-06 21:42:00,64.2,51.0,29.92,ENE,67,0.0,0.0,62,0.00,,,0.00,WUHU21623XXSP,2013-07-07 04:42:00,
2013-07-06 21:47:00,63.5,51.2,29.93,ENE,67,0.0,0.0,64,0.00,,,0.00,WUHU21623XXSP,2013-07-07 04:47:00,
2013-07-06 21:52:00,63.1,51.2,29.93,ENE,67,0.0,0.0,65,0.00,,,0.00,WUHU21623XXSP,2013-07-07 04:52:00,
2013-07-06 21:57:00,63.0,51.1,29.93,ENE,67,0.0,0.0,65,0.00,,,0.00,WUHU21623XXSP,2013-07-07 04:57:00,
2013-07-06 22:02:00,62.6,51.2,29.93,ENE,67,0.0,0.0,66,0.00,,,0.00,WUHU21623XXSP,2013-07-07 05:02:00,
2013-07-06 22:07:00,62.4,50.6,29.93,ENE,67,0.0,0.0,65,0.00,,,0.00,WUHU21623XXSP,2013-07-07 05:07:00,
2013-07-06 22:12:00,62.2,50.4,29.93,ENE,67,0.0,0.0,65,0.00,,,0.00,WUHU21623XXSP,2013-07-07 05:12:00,
2013-07-06 22:17:00,61.7,49.9,29.92,ENE,67,0.0,0.0,65,0.00,,,0.00,WUHU21623XXSP,2013-07-07 05:17:00,
2013-07-06 22:22:00,61.5,50.1,29.93,ENE,67,0.0,0.0,66,0.00,,,0.00,WUHU21623XXSP,2013-07-07 05:22:00,
2013-07-06 22:27:00,61.3,49.5,29.93,ENE,67,0.0,0.0,65,0.00,,,0.00,WUHU21623XXSP,2013-07-07 05:27:00,
2013-07-06 22:32:00,61.0,50.0,29.93,ENE,67,0.0,0.0,67,0.00,,,0.00,WUHU21623XXSP,2013-07-07 05:32:00,
2013-07-06 22:37:00,60.6,49.2,29.93,ENE,67,0.0,0.0,66,0.00,,,0.00,WUHU21623XXSP,2013-07-07 05:37:00,
2013-07-06 22:42:00,60.4,50.2,29.93,ENE,67,0.0,0.0,69,0.00,,,0.00,WUHU21623XXSP,2013-07-07 05:42:00,
2013-07-06 22:47:00,60.1,49.2,29.93,ENE,67,0.0,0.0,67,0.00,,,0.00,WUHU21623XXSP,2013-07-07 05:47:00,
2013-07-06 22:52:00,60.1,48.8,29.93,ENE,67,0.0,0.0,66,0.00,,,0.00,WUHU21623XXSP,2013-07-07 05:52:00,
2013-07-06 22:57:00,59.9,48.6,29.93,ENE,67,0.0,0.0,66,0.00,,,0.00,WUHU21623XXSP,2013-07-07 05:57:00,
2013-07-06 23:02:00,59.5,48.6,29.93,ENE,67,0.0,0.0,67,0.00,,,0.00,WUHU21623XXSP,2013-07-07 06:02:00,
2013-07-06 23:07:00,59.5,49.4,29.93,ENE,67,0.0,0.0,69,0.00,,,0.00,WUHU21623XXSP,2013-07-07 06:07:00,
2013-07-06 23:12:00,59.5,49.4,29.93,ENE,67,0.0,0.0,69,0.00,,,0.00,WUHU21623XXSP,2013-07-07 06:12:00,
2013-07-06 23:17:00,59.2,49.5,29.93,ENE,67,0.0,0.0,70,0.00,,,0.00,WUHU21623XXSP,2013-07-07 06:17:00,
2013-07-06 23:22:00,59.0,49.3,29.93,ENE,67,0.0,0.0,70,0.00,,,0.00,WUHU21623XXSP,2013-07-07 06:22:00,
2013-07-06 23:27:00,58.8,49.1,29.94,ENE,67,0.0,0.0,70,0.00,,,0.00,WUHU21623XXSP,2013-07-07 06:27:00,
2013-07-06 23:32:00,58.8,50.9,29.94,ENE,67,0.0,0.0,75,0.00,,,0.00,WUHU21623XXSP,2013-07-07 06:32:00,
2013-07-06 23:37:00,58.6,50.7,29.94,ENE,67,0.0,0.0,75,0.00,,,0.00,WUHU21623XXSP,2013-07-07 06:37:00,
2013-07-06 23:42:00,58.6,51.8,29.94,ENE,67,0.0,0.0,78,0.00,,,0.00,WUHU21623XXSP,2013-07-07 06:42:00,
2013-07-06 23:47:00,58.5,52.0,29.94,ENE,67,0.0,0.0,79,0.00,,,0.00,WUHU21623XXSP,2013-07-07 06:47:00,
2013-07-06 23:52:00,58.3,51.8,29.94,ENE,67,0.0,0.0,79,0.00,,,0.00,WUHU21623XXSP,2013-07-07 06:52:00,
2013-07-06 23:57:00,58.3,52.5,29.94,ENE,67,0.0,0.0,81,0.00,,,0.00,WUHU21623XXSP,2013-07-07 06:57:00,